Time;durP1;ratioP1;P1;durP2;ratioP2;P2;SDS_P1;SDS_P2;PMS_P1;PMS_P2;Temp;Humidity;BMP_temperature;BMP_pressure;BME280_temperature;BME280_humidity;BME280_pressure;Samples;Min_cycle;Max_cycle;Signal;HPM_P1;HPM_P2
2021/12/26 00:01:08;;;;;;;93.70;54.17;;;;;;;;;;5026621;28;20471;-79
2021/12/26 00:03:35;;;;;;;75.03;48.33;;;;;;;;;;5024569;28;20455;-79
2021/12/26 00:06:05;;;;;;;82.70;50.80;;;;;;;;;;5021897;28;20427;-79
2021/12/26 00:08:32;;;;;;;92.30;53.13;;;;;;;;;;5013405;28;20419;-79
2021/12/26 00:10:58;;;;;;;88.00;52.53;;;;;;;;;;5027379;28;20717;-79
2021/12/26 00:13:24;;;;;;;97.03;58.27;;;;;;;;;;5031218;28;20497;-79
2021/12/26 00:15:50;;;;;;;77.57;49.67;;;;;;;;;;5024840;28;20450;-79
2021/12/26 00:18:17;;;;;;;78.03;50.93;;;;;;;;;;5026347;28;21371;-79
2021/12/26 00:20:44;;;;;;;88.07;53.73;;;;;;;;;;5024296;28;20471;-79
2021/12/26 00:23:11;;;;;;;82.57;51.63;;;;;;;;;;5026277;28;20441;-79
2021/12/26 00:25:38;;;;;;;105.30;60.07;;;;;;;;;;5025328;28;20539;-79
2021/12/26 00:28:04;;;;;;;73.57;48.40;;;;;;;;;;5029750;28;20930;-79
2021/12/26 00:30:30;;;;;;;85.80;52.07;;;;;;;;;;5013004;28;20501;-79
2021/12/26 00:32:57;;;;;;;73.37;48.60;;;;;;;;;;5034643;28;20427;-79
2021/12/26 00:35:24;;;;;;;105.23;59.00;;;;;;;;;;5019825;28;20458;-78
2021/12/26 00:37:50;;;;;;;92.67;54.40;;;;;;;;;;5028878;28;21481;-79
2021/12/26 00:40:18;;;;;;;73.20;46.10;;;;;;;;;;5031961;28;21352;-79
2021/12/26 00:42:44;;;;;;;93.60;52.57;;;;;;;;;;5017475;28;20528;-79
2021/12/26 00:45:10;;;;;;;88.53;52.10;;;;;;;;;;5027835;28;20484;-79
2021/12/26 00:47:37;;;;;;;77.17;48.93;;;;;;;;;;5016799;28;21313;-79
2021/12/26 00:50:04;;;;;;;92.67;52.03;;;;;;;;;;5013465;28;20422;-79
2021/12/26 00:52:30;;;;;;;78.97;47.73;;;;;;;;;;5029366;28;20438;-79
2021/12/26 00:54:56;;;;;;;76.27;47.37;;;;;;;;;;5014485;28;20422;-79
2021/12/26 00:57:22;;;;;;;95.23;52.37;;;;;;;;;;5027318;28;20422;-78
2021/12/26 00:59:48;;;;;;;79.97;47.53;;;;;;;;;;5030663;28;21457;-79
2021/12/26 01:02:15;;;;;;;90.00;50.97;;;;;;;;;;5032577;28;20415;-79
2021/12/26 01:04:42;;;;;;;103.23;56.57;;;;;;;;;;5015782;28;20454;-79
2021/12/26 01:07:17;;;;;;;108.10;57.50;;;;;;;;;;5029074;28;20427;-79
2021/12/26 01:09:47;;;;;;;106.57;58.53;;;;;;;;;;5028145;28;20421;-79
2021/12/26 01:12:15;;;;;;;87.50;51.83;;;;;;;;;;5014042;28;20509;-79
2021/12/26 01:14:48;;;;;;;87.20;50.57;;;;;;;;;;5030604;28;21339;-79
2021/12/26 01:17:19;;;;;;;109.77;57.70;;;;;;;;;;5014670;28;20454;-79
2021/12/26 01:19:49;;;;;;;111.03;57.03;;;;;;;;;;5028410;28;20561;-79
2021/12/26 01:22:16;;;;;;;80.47;48.07;;;;;;;;;;5031312;28;21080;-79
2021/12/26 01:24:42;;;;;;;123.13;60.80;;;;;;;;;;5027899;28;20890;-79
2021/12/26 01:27:09;;;;;;;108.93;57.13;;;;;;;;;;5028634;28;21474;-79
2021/12/26 01:29:36;;;;;;;104.63;55.57;;;;;;;;;;5027741;28;20426;-80
2021/12/26 01:32:02;;;;;;;123.83;61.20;;;;;;;;;;5014833;28;20426;-80
2021/12/26 01:34:28;;;;;;;116.00;58.03;;;;;;;;;;5030757;28;20442;-78
2021/12/26 01:36:55;;;;;;;121.50;60.03;;;;;;;;;;5029492;28;20505;-78
2021/12/26 01:39:22;;;;;;;130.30;64.07;;;;;;;;;;5030208;28;20441;-78
2021/12/26 01:41:49;;;;;;;107.67;55.97;;;;;;;;;;5015732;28;20597;-78
2021/12/26 01:44:15;;;;;;;135.87;66.33;;;;;;;;;;5031643;28;20454;-78
2021/12/26 01:46:42;;;;;;;132.70;64.17;;;;;;;;;;5012902;28;20863;-78
2021/12/26 01:49:14;;;;;;;134.57;65.40;;;;;;;;;;5029516;28;20518;-79
2021/12/26 01:51:40;;;;;;;138.30;63.77;;;;;;;;;;5026702;28;20411;-78
2021/12/26 01:54:09;;;;;;;148.73;66.47;;;;;;;;;;5013405;28;21343;-78
2021/12/26 01:56:36;;;;;;;124.20;61.13;;;;;;;;;;5030710;28;20437;-78
2021/12/26 01:59:03;;;;;;;110.30;57.13;;;;;;;;;;5013297;28;21097;-79
2021/12/26 02:01:29;;;;;;;138.77;63.33;;;;;;;;;;5013701;28;21031;-78
2021/12/26 02:03:56;;;;;;;112.87;56.77;;;;;;;;;;5030736;28;20504;-78
2021/12/26 02:06:22;;;;;;;100.67;53.30;;;;;;;;;;5029049;28;20426;-78
2021/12/26 02:08:48;;;;;;;108.93;56.43;;;;;;;;;;5029773;28;20431;-78
2021/12/26 02:11:15;;;;;;;133.93;62.63;;;;;;;;;;5017430;28;20452;-78
2021/12/26 02:13:41;;;;;;;122.37;58.50;;;;;;;;;;5031109;28;20570;-78
2021/12/26 02:16:08;;;;;;;110.60;57.40;;;;;;;;;;5014721;28;20414;-78
2021/12/26 02:18:34;;;;;;;100.30;54.53;;;;;;;;;;5026600;28;20422;-78
2021/12/26 02:23:37;;;;;;;146.00;65.57;;;;;;;;;;5030702;28;21076;-78
2021/12/26 02:28:43;;;;;;;148.80;64.97;;;;;;;;;;5026197;28;20445;-78
2021/12/26 02:31:09;;;;;;;151.33;68.10;;;;;;;;;;5027549;28;20415;-78
2021/12/26 02:33:36;;;;;;;152.40;68.93;;;;;;;;;;5029320;28;20640;-78
2021/12/26 02:36:03;;;;;;;104.37;54.80;;;;;;;;;;5014715;28;20414;-78
2021/12/26 02:38:29;;;;;;;119.97;59.07;;;;;;;;;;5012970;28;20422;-79
2021/12/26 02:40:55;;;;;;;140.20;64.80;;;;;;;;;;5012835;28;20541;-78
2021/12/26 02:43:22;;;;;;;102.17;53.90;;;;;;;;;;5024970;28;20422;-78
2021/12/26 02:45:49;;;;;;;102.23;54.47;;;;;;;;;;5011849;28;20427;-78
2021/12/26 02:48:15;;;;;;;130.27;61.57;;;;;;;;;;5015937;28;21233;-78
2021/12/26 02:50:42;;;;;;;102.47;53.73;;;;;;;;;;5027266;28;20418;-78
2021/12/26 02:53:10;;;;;;;127.07;62.53;;;;;;;;;;5014382;28;20419;-79
2021/12/26 02:55:36;;;;;;;150.80;67.50;;;;;;;;;;5027018;28;20415;-79
2021/12/26 02:58:04;;;;;;;98.97;53.73;;;;;;;;;;5014395;28;20415;-79
2021/12/26 03:00:32;;;;;;;146.27;66.90;;;;;;;;;;5025974;28;20537;-78
2021/12/26 03:02:59;;;;;;;138.80;66.10;;;;;;;;;;5017424;28;20426;-78
2021/12/26 03:05:27;;;;;;;110.17;57.47;;;;;;;;;;5024095;28;21411;-78
2021/12/26 03:07:54;;;;;;;137.93;63.77;;;;;;;;;;5026424;28;20525;-79
2021/12/26 03:10:22;;;;;;;98.43;53.73;;;;;;;;;;5029826;28;20461;-79
2021/12/26 03:12:49;;;;;;;116.07;57.70;;;;;;;;;;5030295;28;20414;-79
2021/12/26 03:15:15;;;;;;;101.00;54.70;;;;;;;;;;5025195;28;20720;-79
2021/12/26 03:17:41;;;;;;;108.70;58.10;;;;;;;;;;5010441;28;20419;-79
2021/12/26 03:20:11;;;;;;;99.23;53.63;;;;;;;;;;5025400;28;20450;-79
2021/12/26 03:22:38;;;;;;;96.57;52.53;;;;;;;;;;5013821;28;20411;-79
2021/12/26 03:25:05;;;;;;;90.93;49.70;;;;;;;;;;5012618;28;20454;-78
2021/12/26 03:27:31;;;;;;;106.80;52.60;;;;;;;;;;5011684;28;20450;-79
2021/12/26 03:29:57;;;;;;;92.73;51.27;;;;;;;;;;5023165;28;20511;-79
2021/12/26 03:32:23;;;;;;;106.23;53.10;;;;;;;;;;5029434;28;20449;-79
2021/12/26 03:34:50;;;;;;;92.00;50.23;;;;;;;;;;5026152;28;20422;-79
2021/12/26 03:37:16;;;;;;;100.50;53.33;;;;;;;;;;5026546;28;21284;-79
2021/12/26 03:39:43;;;;;;;95.73;51.20;;;;;;;;;;5023303;28;20426;-79
2021/12/26 03:42:09;;;;;;;96.00;52.90;;;;;;;;;;5027873;28;20540;-78
2021/12/26 03:44:35;;;;;;;147.53;63.90;;;;;;;;;;5013393;28;21325;-79
2021/12/26 03:47:01;;;;;;;110.00;54.83;;;;;;;;;;5025789;28;20431;-79
2021/12/26 03:49:27;;;;;;;89.10;49.00;;;;;;;;;;5015420;28;20474;-79
2021/12/26 03:51:54;;;;;;;99.77;52.23;;;;;;;;;;5027039;28;20547;-79
2021/12/26 03:54:20;;;;;;;91.37;50.03;;;;;;;;;;5014649;28;20418;-79
2021/12/26 03:56:46;;;;;;;77.90;46.17;;;;;;;;;;5011357;28;20438;-79
2021/12/26 03:59:12;;;;;;;84.80;47.80;;;;;;;;;;5012067;28;20492;-79
2021/12/26 04:01:38;;;;;;;79.50;45.13;;;;;;;;;;5025295;28;20423;-79
2021/12/26 04:04:04;;;;;;;81.10;47.17;;;;;;;;;;5012666;28;21107;-78
2021/12/26 04:06:30;;;;;;;78.90;44.83;;;;;;;;;;5015070;28;20456;-79
2021/12/26 04:08:57;;;;;;;78.07;45.80;;;;;;;;;;5011510;28;20423;-79
2021/12/26 04:11:24;;;;;;;92.90;50.03;;;;;;;;;;5029419;28;20426;-79
2021/12/26 04:13:50;;;;;;;105.77;54.00;;;;;;;;;;5027207;28;20418;-79
2021/12/26 04:16:16;;;;;;;90.87;49.23;;;;;;;;;;5022511;28;20423;-79
2021/12/26 04:18:42;;;;;;;101.20;52.57;;;;;;;;;;5029260;28;20410;-79
2021/12/26 04:21:08;;;;;;;79.87;45.90;;;;;;;;;;5017392;28;20449;-79
2021/12/26 04:23:35;;;;;;;82.27;46.83;;;;;;;;;;5028654;28;20423;-79
2021/12/26 04:26:01;;;;;;;88.47;49.07;;;;;;;;;;5012405;28;20427;-79
2021/12/26 04:28:27;;;;;;;92.80;49.83;;;;;;;;;;5025463;28;20426;-79
2021/12/26 04:30:53;;;;;;;94.63;48.70;;;;;;;;;;5010971;28;20421;-80
2021/12/26 04:33:20;;;;;;;82.67;46.23;;;;;;;;;;5009985;28;21231;-79
2021/12/26 04:35:46;;;;;;;82.60;45.73;;;;;;;;;;5022534;28;20435;-80
2021/12/26 04:38:12;;;;;;;89.47;49.17;;;;;;;;;;5006492;28;20991;-79
2021/12/26 04:40:38;;;;;;;84.77;48.07;;;;;;;;;;5024808;28;20427;-79
2021/12/26 04:43:05;;;;;;;79.07;45.70;;;;;;;;;;5006936;28;21277;-79
2021/12/26 04:45:31;;;;;;;88.57;49.70;;;;;;;;;;5016402;28;20499;-79
2021/12/26 04:48:01;;;;;;;76.17;44.73;;;;;;;;;;5012469;28;20434;-79
2021/12/26 04:50:28;;;;;;;74.77;43.10;;;;;;;;;;5012465;28;21150;-79
2021/12/26 04:52:54;;;;;;;83.30;47.40;;;;;;;;;;5028123;28;21271;-79
2021/12/26 04:55:22;;;;;;;95.20;50.07;;;;;;;;;;5010350;28;21009;-79
2021/12/26 04:57:48;;;;;;;72.80;43.43;;;;;;;;;;5026195;28;21416;-79
2021/12/26 05:00:16;;;;;;;98.00;52.23;;;;;;;;;;5027465;28;20468;-79
2021/12/26 05:02:43;;;;;;;79.03;46.10;;;;;;;;;;5019731;28;20501;-79
2021/12/26 05:05:10;;;;;;;71.30;42.83;;;;;;;;;;5025390;28;21301;-79
2021/12/26 05:07:36;;;;;;;73.27;43.40;;;;;;;;;;5026203;28;20418;-79
2021/12/26 05:10:03;;;;;;;79.60;46.37;;;;;;;;;;5029282;28;20422;-79
2021/12/26 05:12:29;;;;;;;70.87;42.63;;;;;;;;;;5027289;28;21081;-79
2021/12/26 05:14:55;;;;;;;74.00;43.20;;;;;;;;;;5015778;28;20838;-79
2021/12/26 05:17:21;;;;;;;74.47;42.67;;;;;;;;;;5031356;28;20414;-79
2021/12/26 05:19:47;;;;;;;67.30;41.67;;;;;;;;;;5019037;28;20538;-79
2021/12/26 05:22:13;;;;;;;75.67;45.10;;;;;;;;;;5030334;28;20426;-79
2021/12/26 05:24:40;;;;;;;90.73;46.97;;;;;;;;;;5030690;28;20543;-79
2021/12/26 05:27:06;;;;;;;76.47;44.70;;;;;;;;;;5028856;28;20443;-79
2021/12/26 05:29:32;;;;;;;77.67;45.07;;;;;;;;;;5030964;28;22213;-79
2021/12/26 05:31:58;;;;;;;109.50;53.93;;;;;;;;;;5030597;28;20433;-79
2021/12/26 05:34:24;;;;;;;69.37;42.83;;;;;;;;;;5031638;28;20418;-79
2021/12/26 05:36:50;;;;;;;74.47;43.07;;;;;;;;;;5014606;28;20550;-79
2021/12/26 05:39:16;;;;;;;78.77;43.00;;;;;;;;;;5017044;28;21425;-79
2021/12/26 05:41:49;;;;;;;57.70;36.13;;;;;;;;;;5030238;28;20442;-79
2021/12/26 05:44:15;;;;;;;64.53;38.83;;;;;;;;;;5029440;28;20982;-80
2021/12/26 05:46:41;;;;;;;77.53;43.00;;;;;;;;;;5030124;28;20414;-79
2021/12/26 05:49:08;;;;;;;75.60;43.90;;;;;;;;;;5032367;28;20415;-79
2021/12/26 05:51:34;;;;;;;71.13;41.10;;;;;;;;;;5016536;28;20414;-79
2021/12/26 05:54:00;;;;;;;66.50;41.13;;;;;;;;;;5026377;28;20454;-79
2021/12/26 05:56:26;;;;;;;99.20;51.57;;;;;;;;;;5027717;28;20434;-80
2021/12/26 05:58:52;;;;;;;68.90;42.23;;;;;;;;;;5031211;28;20431;-79
2021/12/26 06:01:18;;;;;;;66.43;41.87;;;;;;;;;;5028545;28;20411;-79
2021/12/26 06:03:45;;;;;;;70.13;42.43;;;;;;;;;;5028080;28;20419;-79
2021/12/26 06:06:11;;;;;;;104.57;53.37;;;;;;;;;;5023861;28;20419;-79
2021/12/26 06:08:37;;;;;;;70.07;41.67;;;;;;;;;;5027937;28;20434;-79
2021/12/26 06:11:03;;;;;;;83.97;46.00;;;;;;;;;;5014527;28;20438;-79
2021/12/26 06:13:31;;;;;;;98.40;52.47;;;;;;;;;;5014668;28;25770;-79
2021/12/26 06:15:57;;;;;;;77.97;45.90;;;;;;;;;;5029579;28;20443;-79
2021/12/26 06:18:24;;;;;;;78.90;46.23;;;;;;;;;;5026288;28;20415;-79
2021/12/26 06:20:50;;;;;;;73.80;44.17;;;;;;;;;;5029549;28;20431;-79
2021/12/26 06:23:16;;;;;;;72.00;43.17;;;;;;;;;;5029281;28;20509;-79
2021/12/26 06:25:42;;;;;;;70.50;42.30;;;;;;;;;;5030118;28;20492;-79
2021/12/26 06:28:08;;;;;;;68.00;41.10;;;;;;;;;;5027123;28;21329;-80
2021/12/26 06:30:35;;;;;;;70.33;42.50;;;;;;;;;;5026775;28;20419;-79
2021/12/26 06:33:01;;;;;;;69.07;42.23;;;;;;;;;;5014919;28;21150;-79
2021/12/26 06:35:27;;;;;;;111.67;56.60;;;;;;;;;;5028585;28;20418;-79
2021/12/26 06:37:53;;;;;;;102.93;53.00;;;;;;;;;;5026952;28;21211;-79
2021/12/26 06:40:19;;;;;;;80.07;46.67;;;;;;;;;;5011874;28;20440;-80
2021/12/26 06:42:49;;;;;;;73.53;45.03;;;;;;;;;;5031099;28;20427;-79
2021/12/26 06:45:17;;;;;;;84.87;48.27;;;;;;;;;;5028326;28;20552;-79
2021/12/26 06:47:48;;;;;;;79.10;45.77;;;;;;;;;;5021680;28;20420;-79
2021/12/26 06:50:15;;;;;;;81.03;46.20;;;;;;;;;;5020933;28;20592;-79
2021/12/26 06:52:42;;;;;;;77.33;46.73;;;;;;;;;;5026933;28;20957;-79
2021/12/26 06:55:09;;;;;;;74.03;44.37;;;;;;;;;;5027010;28;21230;-79
2021/12/26 06:57:35;;;;;;;75.43;46.33;;;;;;;;;;5027680;28;20410;-79
2021/12/26 07:00:03;;;;;;;78.50;46.30;;;;;;;;;;5013241;28;21251;-79
2021/12/26 07:02:29;;;;;;;83.90;48.07;;;;;;;;;;5013596;28;20437;-80
2021/12/26 07:04:55;;;;;;;75.83;43.73;;;;;;;;;;5028204;28;20454;-79
2021/12/26 07:07:21;;;;;;;88.80;49.47;;;;;;;;;;5029253;28;20691;-80
2021/12/26 07:09:47;;;;;;;78.10;45.77;;;;;;;;;;5012206;28;20487;-79
2021/12/26 07:12:14;;;;;;;80.50;46.23;;;;;;;;;;5030542;28;21239;-79
2021/12/26 07:14:41;;;;;;;106.70;54.53;;;;;;;;;;5013775;28;20429;-79
2021/12/26 07:17:07;;;;;;;85.17;49.13;;;;;;;;;;5027368;28;20499;-79
2021/12/26 07:19:33;;;;;;;75.17;43.63;;;;;;;;;;5010991;28;21107;-79
2021/12/26 07:21:59;;;;;;;88.50;49.30;;;;;;;;;;5024888;28;20422;-79
2021/12/26 07:24:25;;;;;;;95.57;49.60;;;;;;;;;;5009792;28;20447;-79
2021/12/26 07:26:51;;;;;;;91.37;49.03;;;;;;;;;;5026917;28;20422;-80
2021/12/26 07:29:18;;;;;;;90.53;51.10;;;;;;;;;;5028104;28;20492;-79
2021/12/26 07:31:44;;;;;;;67.50;42.10;;;;;;;;;;5012479;28;21235;-80
2021/12/26 07:34:10;;;;;;;77.27;46.97;;;;;;;;;;5016039;28;21028;-80
2021/12/26 07:36:36;;;;;;;73.63;44.80;;;;;;;;;;5010462;28;20613;-79
2021/12/26 07:39:02;;;;;;;77.50;45.07;;;;;;;;;;5026646;28;20823;-79
2021/12/26 07:41:29;;;;;;;72.83;45.20;;;;;;;;;;5028098;28;20501;-80
2021/12/26 07:43:55;;;;;;;68.50;43.53;;;;;;;;;;5021986;28;20446;-80
2021/12/26 07:46:21;;;;;;;70.97;43.37;;;;;;;;;;5014079;28;20412;-80
2021/12/26 07:48:48;;;;;;;73.53;44.70;;;;;;;;;;5026107;28;20430;-79
2021/12/26 07:51:14;;;;;;;85.43;48.97;;;;;;;;;;5025938;28;20415;-79
2021/12/26 07:53:40;;;;;;;87.07;50.50;;;;;;;;;;5025199;28;20430;-80
2021/12/26 07:56:07;;;;;;;70.93;43.13;;;;;;;;;;5024809;28;20486;-80
2021/12/26 07:58:34;;;;;;;79.37;46.00;;;;;;;;;;5026416;28;20945;-80
2021/12/26 08:01:00;;;;;;;62.77;38.17;;;;;;;;;;5024452;28;20500;-79
2021/12/26 08:03:26;;;;;;;63.23;40.50;;;;;;;;;;5028871;28;20461;-80
2021/12/26 08:05:52;;;;;;;64.17;39.27;;;;;;;;;;5012333;28;21204;-79
2021/12/26 08:08:18;;;;;;;62.60;38.10;;;;;;;;;;5027470;28;20407;-80
2021/12/26 08:10:44;;;;;;;59.50;37.23;;;;;;;;;;5029381;28;20422;-79
2021/12/26 08:13:10;;;;;;;67.83;41.63;;;;;;;;;;5013934;28;20432;-80
2021/12/26 08:15:37;;;;;;;59.10;37.10;;;;;;;;;;5016741;28;21548;-79
2021/12/26 08:18:03;;;;;;;88.90;48.73;;;;;;;;;;5026731;28;20435;-79
2021/12/26 08:20:29;;;;;;;86.17;45.53;;;;;;;;;;5029688;28;20914;-79
2021/12/26 08:22:57;;;;;;;66.07;40.80;;;;;;;;;;5029036;28;20430;-79
2021/12/26 08:25:24;;;;;;;85.77;47.20;;;;;;;;;;5012798;28;20468;-79
2021/12/26 08:27:50;;;;;;;76.00;44.70;;;;;;;;;;5010884;28;20548;-80
2021/12/26 08:30:16;;;;;;;68.67;42.10;;;;;;;;;;5027337;28;20422;-79
2021/12/26 08:32:43;;;;;;;68.67;42.27;;;;;;;;;;5027731;28;20793;-79
2021/12/26 08:35:09;;;;;;;83.47;46.57;;;;;;;;;;5011291;28;20515;-80
2021/12/26 08:37:37;;;;;;;66.63;41.30;;;;;;;;;;5027233;28;20473;-80
2021/12/26 08:40:04;;;;;;;89.83;51.00;;;;;;;;;;5013389;28;20509;-79
2021/12/26 08:42:30;;;;;;;74.10;44.00;;;;;;;;;;5028625;28;20434;-79
2021/12/26 08:44:58;;;;;;;71.13;43.50;;;;;;;;;;5020801;28;20525;-79
2021/12/26 08:47:24;;;;;;;63.87;40.43;;;;;;;;;;5026758;28;21280;-80
2021/12/26 08:49:50;;;;;;;68.17;42.07;;;;;;;;;;5019376;28;20414;-79
2021/12/26 08:52:16;;;;;;;62.17;40.10;;;;;;;;;;5031601;28;20417;-80
2021/12/26 08:54:42;;;;;;;73.40;44.10;;;;;;;;;;5030789;28;20461;-80
2021/12/26 08:57:09;;;;;;;73.63;44.13;;;;;;;;;;5028476;28;20418;-80
2021/12/26 08:59:36;;;;;;;61.30;38.17;;;;;;;;;;5014380;28;20492;-80
2021/12/26 09:02:03;;;;;;;58.20;36.60;;;;;;;;;;5027465;28;20419;-80
2021/12/26 09:04:30;;;;;;;59.00;36.20;;;;;;;;;;5029943;28;21195;-80
2021/12/26 09:06:56;;;;;;;58.23;36.43;;;;;;;;;;5017319;28;20499;-80
2021/12/26 09:09:22;;;;;;;64.50;40.57;;;;;;;;;;5014630;28;20418;-80
2021/12/26 09:11:49;;;;;;;58.97;38.23;;;;;;;;;;5026532;28;20779;-81
2021/12/26 09:14:15;;;;;;;75.33;43.80;;;;;;;;;;5027419;28;20427;-80
2021/12/26 09:17:19;;;;;;;70.33;43.00;;;;;;;;;;5029619;28;20438;-80
2021/12/26 09:19:48;;;;;;;77.43;46.70;;;;;;;;;;4986461;28;20432;-81
2021/12/26 09:22:15;;;;;;;59.77;39.03;;;;;;;;;;5014180;28;20490;-81
2021/12/26 09:24:42;;;;;;;67.50;40.90;;;;;;;;;;5028623;28;21299;-81
2021/12/26 09:27:08;;;;;;;74.70;45.53;;;;;;;;;;5014738;28;20438;-81
2021/12/26 09:29:34;;;;;;;67.93;41.33;;;;;;;;;;5028335;28;20532;-81
2021/12/26 09:32:02;;;;;;;61.87;39.67;;;;;;;;;;5031557;28;20414;-81
2021/12/26 09:34:29;;;;;;;61.30;39.07;;;;;;;;;;5028106;28;20448;-81
2021/12/26 09:36:56;;;;;;;66.80;41.37;;;;;;;;;;5012587;28;20430;-80
2021/12/26 09:39:23;;;;;;;61.87;39.87;;;;;;;;;;5029915;28;20427;-80
2021/12/26 09:41:49;;;;;;;59.00;38.27;;;;;;;;;;5008020;28;20454;-80
2021/12/26 09:44:15;;;;;;;66.70;41.60;;;;;;;;;;5027324;28;21144;-80
2021/12/26 09:46:41;;;;;;;66.00;42.40;;;;;;;;;;5010208;28;21333;-80
2021/12/26 09:49:08;;;;;;;58.67;38.10;;;;;;;;;;5012747;28;20418;-80
2021/12/26 09:51:34;;;;;;;60.43;39.30;;;;;;;;;;5010803;28;21153;-81
2021/12/26 09:54:00;;;;;;;59.70;38.87;;;;;;;;;;5010484;28;20462;-82
2021/12/26 09:56:26;;;;;;;60.27;38.43;;;;;;;;;;5026712;28;21418;-82
2021/12/26 09:58:56;;;;;;;60.57;39.70;;;;;;;;;;5008180;28;21195;-82
2021/12/26 10:01:37;;;;;;;58.73;38.53;;;;;;;;;;5013151;28;21281;-82
2021/12/26 10:04:23;;;;;;;67.73;41.57;;;;;;;;;;5027174;28;20465;-82
2021/12/26 10:06:51;;;;;;;59.33;38.70;;;;;;;;;;5017436;28;21047;-82
2021/12/26 10:09:18;;;;;;;67.03;42.70;;;;;;;;;;5030254;28;20417;-82
2021/12/26 10:11:52;;;;;;;64.80;44.33;;;;;;;;;;5016125;28;21933;-83
2021/12/26 10:14:19;;;;;;;87.87;51.97;;;;;;;;;;5003601;28;20530;-82
2021/12/26 10:16:46;;;;;;;79.07;48.87;;;;;;;;;;5021753;28;20422;-82
2021/12/26 10:19:13;;;;;;;75.30;47.23;;;;;;;;;;5011640;28;20415;-82
2021/12/26 10:21:47;;;;;;;87.27;50.90;;;;;;;;;;5021463;28;20435;-82
2021/12/26 10:24:21;;;;;;;81.43;49.60;;;;;;;;;;5012922;28;20446;-82
2021/12/26 10:26:52;;;;;;;90.07;53.13;;;;;;;;;;5025885;28;21115;-81
2021/12/26 10:29:18;;;;;;;76.93;48.30;;;;;;;;;;5008866;28;20416;-82
2021/12/26 10:31:49;;;;;;;75.77;47.70;;;;;;;;;;5010677;28;20883;-81
2021/12/26 10:34:21;;;;;;;85.07;51.23;;;;;;;;;;5029548;28;20477;-81
2021/12/26 10:36:49;;;;;;;76.97;47.57;;;;;;;;;;5010366;28;20430;-81
2021/12/26 10:39:17;;;;;;;79.67;47.40;;;;;;;;;;5024756;28;20609;-82
2021/12/26 10:42:00;;;;;;;79.97;48.13;;;;;;;;;;5025919;28;20512;-82
2021/12/26 10:44:28;;;;;;;74.57;47.57;;;;;;;;;;5023473;28;21175;-83
2021/12/26 10:46:55;;;;;;;76.43;46.50;;;;;;;;;;5010961;28;20509;-83
2021/12/26 10:49:36;;;;;;;72.17;47.00;;;;;;;;;;5009808;28;20458;-83
2021/12/26 10:52:19;;;;;;;72.10;46.53;;;;;;;;;;5006882;28;20419;-82
2021/12/26 10:54:48;;;;;;;70.13;45.00;;;;;;;;;;5028991;28;21345;-80
2021/12/26 10:57:19;;;;;;;78.70;49.00;;;;;;;;;;5029431;28;20462;-81
2021/12/26 10:59:46;;;;;;;79.57;49.40;;;;;;;;;;5022875;28;20973;-81
2021/12/26 11:02:21;;;;;;;89.57;54.50;;;;;;;;;;5027578;28;20415;-81
2021/12/26 11:04:58;;;;;;;73.93;49.23;;;;;;;;;;5026403;28;20461;-82
2021/12/26 11:07:24;;;;;;;90.03;54.77;;;;;;;;;;5023674;28;20414;-82
2021/12/26 11:10:23;;;;;;;89.70;53.93;;;;;;;;;;5016697;28;20422;-82
2021/12/26 11:12:51;;;;;;;94.00;55.77;;;;;;;;;;4980608;28;21357;-81
2021/12/26 11:15:18;;;;;;;87.53;52.83;;;;;;;;;;5012328;28;20456;-82
2021/12/26 11:17:47;;;;;;;84.00;52.40;;;;;;;;;;5009284;28;20462;-81
2021/12/26 11:20:20;;;;;;;77.27;50.23;;;;;;;;;;5009698;28;20449;-81
2021/12/26 11:22:47;;;;;;;78.43;50.83;;;;;;;;;;5009598;28;20482;-81
2021/12/26 11:25:19;;;;;;;83.13;51.97;;;;;;;;;;5020345;28;20444;-83
2021/12/26 11:27:45;;;;;;;104.97;60.73;;;;;;;;;;5020888;28;20423;-83
2021/12/26 11:30:12;;;;;;;87.80;54.07;;;;;;;;;;5020910;28;20468;-82
2021/12/26 11:32:38;;;;;;;84.40;52.73;;;;;;;;;;5019436;28;20423;-83
2021/12/26 11:35:07;;;;;;;104.80;60.97;;;;;;;;;;5023932;28;20514;-83
2021/12/26 11:37:34;;;;;;;85.47;52.90;;;;;;;;;;5009044;28;20424;-83
2021/12/26 11:40:01;;;;;;;83.10;51.50;;;;;;;;;;5006391;28;20520;-83
2021/12/26 11:42:57;;;;;;;87.23;53.53;;;;;;;;;;5008623;28;20427;-83
2021/12/26 11:45:32;;;;;;;92.43;57.60;;;;;;;;;;5023443;28;21370;-83
2021/12/26 11:48:09;;;;;;;79.63;51.80;;;;;;;;;;5006601;28;21181;-82
2021/12/26 11:51:11;;;;;;;106.90;60.17;;;;;;;;;;5005784;28;20546;-82
2021/12/26 11:54:01;;;;;;;85.47;53.53;;;;;;;;;;4971220;28;20419;-83
2021/12/26 11:56:30;;;;;;;90.17;54.73;;;;;;;;;;5018496;28;20532;-83
2021/12/26 11:59:09;;;;;;;88.43;54.80;;;;;;;;;;5006754;28;20430;-83
2021/12/26 12:01:36;;;;;;;84.20;51.20;;;;;;;;;;5003877;28;21206;-82
2021/12/26 12:04:15;;;;;;;87.27;51.77;;;;;;;;;;5006505;28;20419;-82
2021/12/26 12:06:45;;;;;;;101.60;58.33;;;;;;;;;;5015825;28;20543;-82
2021/12/26 12:09:25;;;;;;;100.63;57.47;;;;;;;;;;5020605;28;20453;-82
2021/12/26 12:12:05;;;;;;;100.37;57.70;;;;;;;;;;5025196;28;20689;-82
2021/12/26 12:14:53;;;;;;;85.43;53.70;;;;;;;;;;5009112;28;20426;-82
2021/12/26 12:17:28;;;;;;;108.77;62.20;;;;;;;;;;5006506;28;20497;-82
2021/12/26 12:23:11;;;;;;;96.73;58.77;;;;;;;;;;4994608;28;20426;-82
2021/12/26 12:25:49;;;;;;;113.33;62.97;;;;;;;;;;5024860;28;20449;-82
2021/12/26 12:28:23;;;;;;;109.13;61.93;;;;;;;;;;5029326;28;20419;-82
2021/12/26 12:31:02;;;;;;;106.90;60.80;;;;;;;;;;5013843;28;20441;-82
2021/12/26 12:33:41;;;;;;;100.37;58.83;;;;;;;;;;5026659;28;20564;-82
2021/12/26 12:36:12;;;;;;;94.73;57.00;;;;;;;;;;5027577;28;20493;-81
2021/12/26 12:38:46;;;;;;;102.37;59.93;;;;;;;;;;5013413;28;20442;-81
2021/12/26 12:41:39;;;;;;;98.23;56.57;;;;;;;;;;5013143;28;20439;-81
2021/12/26 12:44:24;;;;;;;99.13;57.73;;;;;;;;;;5009468;28;20484;-82
2021/12/26 12:47:17;;;;;;;103.17;59.53;;;;;;;;;;5013896;28;20967;-82
2021/12/26 12:50:03;;;;;;;92.73;56.77;;;;;;;;;;5010547;28;20422;-82
2021/12/26 12:52:47;;;;;;;110.47;63.80;;;;;;;;;;5010606;28;20433;-82
2021/12/26 12:55:50;;;;;;;116.97;64.17;;;;;;;;;;5026516;28;20435;-81
2021/12/26 12:58:22;;;;;;;107.10;60.13;;;;;;;;;;5014005;28;20417;-82
2021/12/26 13:04:00;;;;;;;96.93;58.77;;;;;;;;;;5022576;28;20437;-82
2021/12/26 13:06:29;;;;;;;102.60;60.33;;;;;;;;;;5025670;28;20870;-82
2021/12/26 13:08:58;;;;;;;103.87;62.13;;;;;;;;;;5013556;28;20418;-82
2021/12/26 13:11:28;;;;;;;95.67;57.70;;;;;;;;;;5022144;28;20850;-83
2021/12/26 13:13:58;;;;;;;94.80;57.50;;;;;;;;;;5008889;28;20431;-81
2021/12/26 13:16:36;;;;;;;95.57;57.53;;;;;;;;;;5024061;28;20434;-81
2021/12/26 13:19:10;;;;;;;98.53;58.13;;;;;;;;;;5009822;28;20885;-81
2021/12/26 13:21:40;;;;;;;95.33;57.67;;;;;;;;;;5008825;28;20470;-81
2021/12/26 13:24:12;;;;;;;99.33;58.73;;;;;;;;;;5023530;28;20450;-81
2021/12/26 13:26:42;;;;;;;88.67;54.60;;;;;;;;;;5011477;28;20545;-82
2021/12/26 13:29:24;;;;;;;96.33;59.37;;;;;;;;;;5004584;28;20465;-82
2021/12/26 13:31:50;;;;;;;95.23;57.17;;;;;;;;;;5010546;28;20438;-82
2021/12/26 13:34:23;;;;;;;96.23;58.97;;;;;;;;;;5010723;28;20562;-82
2021/12/26 13:37:01;;;;;;;101.77;59.30;;;;;;;;;;5027817;28;20476;-82
2021/12/26 13:39:34;;;;;;;98.60;57.53;;;;;;;;;;5011368;28;20423;-82
2021/12/26 13:42:03;;;;;;;86.47;52.87;;;;;;;;;;5012148;28;20435;-82
2021/12/26 13:44:29;;;;;;;101.93;58.67;;;;;;;;;;5026334;28;20658;-83
2021/12/26 13:47:00;;;;;;;112.07;61.47;;;;;;;;;;5024454;28;21060;-82
2021/12/26 13:49:34;;;;;;;103.43;60.33;;;;;;;;;;5012438;28;20962;-83
2021/12/26 13:52:01;;;;;;;106.07;60.73;;;;;;;;;;5028579;28;20430;-82
2021/12/26 13:54:39;;;;;;;100.67;60.13;;;;;;;;;;5010676;28;20438;-83
2021/12/26 13:57:09;;;;;;;92.77;56.33;;;;;;;;;;5009055;28;20430;-82
2021/12/26 13:59:43;;;;;;;90.67;53.53;;;;;;;;;;5013132;28;20441;-83
2021/12/26 14:02:15;;;;;;;89.00;54.20;;;;;;;;;;5009166;28;20535;-83
2021/12/26 14:04:52;;;;;;;93.97;56.40;;;;;;;;;;5013485;28;20863;-81
2021/12/26 14:07:21;;;;;;;86.60;51.50;;;;;;;;;;5035513;28;20475;-82
2021/12/26 14:09:52;;;;;;;84.73;53.07;;;;;;;;;;5029886;28;20431;-82
2021/12/26 14:12:26;;;;;;;90.93;53.30;;;;;;;;;;5020239;28;20430;-82
2021/12/26 14:14:58;;;;;;;89.27;53.93;;;;;;;;;;5018965;28;20458;-82
2021/12/26 14:17:33;;;;;;;84.63;52.87;;;;;;;;;;5021225;28;20428;-82
2021/12/26 14:20:02;;;;;;;83.23;51.00;;;;;;;;;;5018287;28;20444;-81
2021/12/26 14:22:31;;;;;;;93.70;53.87;;;;;;;;;;5035264;28;20521;-82
2021/12/26 14:25:00;;;;;;;83.87;50.83;;;;;;;;;;5016913;28;21193;-83
2021/12/26 14:27:30;;;;;;;84.23;52.17;;;;;;;;;;5020124;28;20418;-80
2021/12/26 14:30:28;;;;;;;81.53;51.50;;;;;;;;;;5032256;28;20433;-83
2021/12/26 14:33:01;;;;;;;83.70;51.63;;;;;;;;;;5033322;28;20427;-83
2021/12/26 14:35:27;;;;;;;88.77;52.90;;;;;;;;;;5019152;28;20442;-82